createdAt,value
2018-05-13T00:02:09.627Z,89.21
2018-05-13T00:04:37.923Z,89.47
2018-05-13T00:07:06.423Z,89.56
2018-05-13T00:09:34.741Z,89.24
2018-05-13T00:12:03.059Z,89.60
2018-05-13T00:14:31.343Z,90.40
2018-05-13T00:16:59.663Z,89.94
2018-05-13T00:19:28.328Z,90.76
2018-05-13T00:21:56.647Z,90.59
2018-05-13T00:24:24.970Z,90.84
2018-05-13T00:26:53.284Z,90.24
2018-05-13T00:29:21.699Z,90.82
2018-05-13T00:31:50.026Z,90.90
2018-05-13T00:34:18.317Z,91.07
2018-05-13T00:36:46.651Z,91.71
2018-05-13T00:39:15.040Z,91.47
2018-05-13T00:41:43.560Z,92.00
2018-05-13T00:44:12.035Z,91.86
2018-05-13T00:46:40.372Z,92.16
2018-05-13T00:49:08.794Z,93.09
2018-05-13T00:51:37.110Z,92.94
2018-05-13T00:54:14.344Z,93.37
2018-05-13T00:56:42.730Z,92.97
2018-05-13T00:59:11.273Z,92.67
2018-05-13T01:01:39.632Z,92.60
2018-05-13T01:04:07.954Z,93.06
2018-05-13T01:06:36.278Z,93.10
2018-05-13T01:09:05.749Z,93.91
2018-05-13T01:11:34.141Z,93.60
2018-05-13T01:14:03.040Z,93.52
2018-05-13T01:16:31.403Z,93.44
2018-05-13T01:18:59.696Z,93.69
2018-05-13T01:21:28.037Z,93.65
2018-05-13T01:23:56.352Z,94.08
2018-05-13T01:26:24.752Z,94.45
2018-05-13T01:28:53.050Z,94.37
2018-05-13T01:31:21.430Z,94.86
2018-05-13T01:33:49.735Z,95.36
2018-05-13T01:36:18.136Z,95.52
2018-05-13T01:38:46.407Z,95.74
2018-05-13T01:41:14.884Z,96.40
2018-05-13T01:43:43.210Z,96.29
2018-05-13T01:46:11.566Z,95.73
2018-05-13T01:48:39.844Z,95.53
2018-05-13T01:51:08.176Z,95.69
2018-05-13T01:53:36.631Z,95.39
2018-05-13T01:56:04.971Z,95.84
2018-05-13T01:58:33.279Z,95.88
2018-05-13T02:01:01.826Z,96.51
2018-05-13T02:03:30.178Z,96.03
2018-05-13T02:05:58.671Z,96.79
2018-05-13T02:08:26.964Z,96.15
2018-05-13T02:10:55.273Z,97.00
2018-05-13T02:13:23.552Z,96.54
2018-05-13T02:15:51.869Z,96.79
2018-05-13T02:18:20.222Z,96.76
2018-05-13T02:20:48.551Z,97.50
2018-05-13T02:23:16.996Z,97.38
2018-05-13T02:25:45.326Z,97.49
2018-05-13T02:28:14.029Z,97.59
2018-05-13T02:30:42.515Z,97.58
2018-05-13T02:33:10.816Z,97.55
2018-05-13T02:35:39.144Z,97.95
2018-05-13T02:38:07.467Z,98.58
2018-05-13T02:40:35.781Z,98.55
2018-05-13T02:43:04.125Z,98.44
2018-05-13T02:45:32.446Z,99.01
2018-05-13T02:48:00.796Z,99.33
2018-05-13T02:50:29.117Z,98.98
2018-05-13T02:53:00.552Z,99.41
2018-05-13T02:55:28.941Z,99.85
2018-05-13T02:57:57.485Z,99.65
2018-05-13T03:00:26.120Z,99.54
2018-05-13T03:02:54.438Z,99.71
2018-05-13T03:05:22.832Z,99.93
2018-05-13T03:07:51.165Z,100.00
2018-05-13T03:10:19.511Z,100.00
2018-05-13T03:12:47.827Z,100.00
2018-05-13T03:15:16.359Z,100.00
2018-05-13T03:17:44.720Z,100.00
2018-05-13T03:20:13.180Z,100.00
2018-05-13T03:22:41.568Z,100.00
2018-05-13T03:25:10.161Z,100.00
2018-05-13T03:27:38.506Z,100.00
2018-05-13T03:30:06.823Z,100.00
2018-05-13T03:32:35.272Z,100.00
2018-05-13T03:35:03.608Z,100.00
2018-05-13T03:37:32.047Z,100.00
2018-05-13T03:40:00.332Z,100.00
2018-05-13T03:42:28.674Z,100.00
2018-05-13T03:44:56.987Z,100.00
2018-05-13T03:47:25.328Z,100.00
2018-05-13T03:49:53.643Z,100.00
2018-05-13T03:52:21.971Z,100.00
2018-05-13T03:54:50.260Z,100.00
2018-05-13T03:57:18.676Z,100.00
2018-05-13T03:59:47.144Z,100.00
2018-05-13T04:05:10.979Z,99.88
2018-05-13T04:07:44.869Z,99.81
2018-05-13T04:14:30.050Z,99.24
2018-05-13T04:16:58.373Z,99.28
2018-05-13T04:19:26.611Z,98.68
2018-05-13T04:21:54.923Z,98.23
2018-05-13T04:24:23.182Z,97.68
2018-05-13T04:26:51.516Z,98.44
2018-05-13T04:29:19.779Z,97.87
2018-05-13T04:31:48.195Z,97.46
2018-05-13T04:34:16.438Z,96.67
2018-05-13T04:36:44.758Z,96.44
2018-05-13T04:39:13.001Z,95.90
2018-05-13T04:41:41.311Z,95.63
2018-05-13T04:44:09.602Z,95.68
2018-05-13T04:46:37.918Z,95.15
2018-05-13T04:49:06.181Z,94.85
2018-05-13T04:51:34.490Z,94.01
2018-05-13T04:54:02.755Z,93.41
2018-05-13T04:56:31.094Z,93.45
2018-05-13T04:58:59.382Z,93.01
2018-05-13T05:01:27.731Z,92.60
2018-05-13T05:03:56.043Z,92.35
2018-05-13T05:06:24.348Z,91.55
2018-05-13T05:08:52.782Z,90.87
2018-05-13T05:11:21.026Z,90.24
2018-05-13T05:13:49.295Z,89.77
2018-05-13T05:16:17.643Z,89.19
2018-05-13T05:18:45.926Z,89.52
2018-05-13T05:21:14.247Z,89.41
2018-05-13T05:23:42.547Z,88.68
2018-05-13T05:26:10.862Z,88.34
2018-05-13T05:28:39.169Z,88.15
2018-05-13T05:31:07.606Z,86.81
2018-05-13T05:33:36.079Z,86.43
2018-05-13T05:36:04.469Z,86.22
2018-05-13T05:38:32.739Z,85.53
2018-05-13T05:41:01.046Z,85.06
2018-05-13T05:43:29.297Z,84.57
2018-05-13T05:45:57.613Z,84.03
2018-05-13T05:48:25.899Z,83.19
2018-05-13T05:50:54.234Z,82.08
2018-05-13T05:53:22.570Z,82.04
2018-05-13T05:55:50.905Z,81.91
2018-05-13T05:58:19.178Z,81.27
2018-05-13T06:00:47.538Z,80.05
2018-05-13T06:03:15.989Z,80.27
2018-05-13T06:05:44.338Z,79.03
2018-05-13T06:08:12.577Z,79.80
2018-05-13T06:10:40.890Z,78.05
2018-05-13T06:13:09.155Z,77.71
2018-05-13T06:15:37.505Z,77.31
2018-05-13T06:18:05.863Z,75.58
2018-05-13T06:20:34.372Z,75.03
2018-05-13T06:23:02.639Z,75.05
2018-05-13T06:25:30.961Z,75.55
2018-05-13T06:27:59.198Z,73.56
2018-05-13T06:30:27.862Z,73.25
2018-05-13T06:32:56.142Z,72.18
2018-05-13T06:35:24.492Z,70.83
2018-05-13T06:37:52.769Z,69.78
2018-05-13T06:40:21.188Z,70.25
2018-05-13T06:42:49.678Z,70.23
2018-05-13T06:45:18.106Z,69.66
2018-05-13T06:47:46.573Z,68.75
2018-05-13T06:50:14.918Z,67.85
2018-05-13T06:52:43.218Z,68.40
2018-05-13T06:55:11.560Z,68.81
2018-05-13T06:57:40.134Z,66.99
2018-05-13T07:00:10.995Z,65.68
2018-05-13T07:02:40.451Z,66.44
2018-05-13T07:05:08.746Z,65.75
2018-05-13T07:07:37.081Z,66.08
2018-05-13T07:10:05.746Z,65.45
2018-05-13T07:12:34.453Z,64.68
2018-05-13T07:15:02.774Z,64.82
2018-05-13T07:17:31.079Z,64.47
2018-05-13T07:19:59.326Z,64.40
2018-05-13T07:22:27.649Z,64.83
2018-05-13T07:24:58.763Z,64.24
2018-05-13T07:27:27.261Z,63.67
2018-05-13T07:29:55.931Z,62.58
2018-05-13T07:32:24.270Z,61.90
2018-05-13T07:34:52.542Z,63.39
2018-05-13T07:37:20.859Z,61.81
2018-05-13T07:39:50.954Z,61.26
2018-05-13T07:42:19.427Z,60.53
2018-05-13T07:44:47.768Z,59.06
2018-05-13T07:47:16.445Z,59.60
2018-05-13T07:49:44.775Z,58.77
2018-05-13T07:52:13.106Z,59.18
2018-05-13T07:54:41.383Z,58.13
2018-05-13T07:57:09.693Z,57.88
2018-05-13T07:59:37.971Z,55.43
2018-05-13T08:02:06.279Z,55.35
2018-05-13T08:04:34.563Z,55.18
2018-05-13T08:07:02.932Z,55.39
2018-05-13T08:09:32.106Z,54.70
2018-05-13T08:12:01.132Z,54.41
2018-05-13T08:14:29.605Z,52.97
2018-05-13T08:16:58.699Z,51.93
2018-05-13T08:19:27.002Z,53.80
2018-05-13T08:21:55.364Z,51.74
2018-05-13T08:24:24.116Z,51.90
2018-05-13T08:26:52.582Z,52.09
2018-05-13T08:29:20.891Z,51.42
2018-05-13T08:31:49.235Z,52.52
2018-05-13T08:34:17.515Z,52.14
2018-05-13T08:36:45.934Z,51.54
2018-05-13T08:39:14.585Z,50.34
2018-05-13T08:41:42.881Z,49.82
2018-05-13T08:44:11.541Z,49.92
2018-05-13T08:46:39.903Z,50.13
2018-05-13T08:49:08.347Z,48.24
2018-05-13T08:51:36.643Z,47.83
2018-05-13T08:54:08.188Z,48.07
2018-05-13T08:56:36.483Z,47.08
2018-05-13T08:59:04.735Z,44.89
2018-05-13T09:01:33.199Z,45.54
2018-05-13T09:04:01.462Z,44.57
2018-05-13T09:06:29.804Z,44.47
2018-05-13T09:08:58.083Z,43.60
2018-05-13T09:11:26.409Z,41.96
2018-05-13T09:13:54.959Z,42.22
2018-05-13T09:16:23.524Z,42.00
2018-05-13T09:18:51.793Z,40.39
2018-05-13T09:21:20.228Z,40.80
2018-05-13T09:23:48.844Z,40.34
2018-05-13T09:26:17.245Z,39.58
2018-05-13T09:28:45.512Z,39.34
2018-05-13T09:31:13.811Z,39.33
2018-05-13T09:33:42.624Z,40.20
2018-05-13T09:36:11.099Z,39.37
2018-05-13T09:38:39.508Z,39.05
2018-05-13T09:41:07.866Z,39.44
2018-05-13T09:43:36.126Z,39.64
2018-05-13T09:46:04.471Z,40.62
2018-05-13T09:48:32.727Z,37.05
2018-05-13T09:51:01.040Z,38.06
2018-05-13T09:53:29.663Z,38.14
2018-05-13T09:55:58.004Z,37.37
2018-05-13T09:58:26.294Z,37.41
2018-05-13T10:00:54.631Z,37.19
2018-05-13T10:03:22.966Z,36.69
2018-05-13T10:05:54.218Z,36.18
2018-05-13T10:08:22.536Z,36.04
2018-05-13T10:10:50.902Z,34.97
2018-05-13T10:13:19.362Z,35.36
2018-05-13T10:15:47.651Z,36.09
2018-05-13T10:18:15.917Z,36.03
2018-05-13T10:20:44.202Z,34.92
2018-05-13T10:23:12.571Z,38.26
2018-05-13T10:25:41.351Z,34.20
2018-05-13T10:28:09.993Z,32.83
2018-05-13T10:30:38.269Z,33.12
2018-05-13T10:33:06.538Z,33.10
2018-05-13T10:35:35.018Z,33.17
2018-05-13T10:38:04.027Z,34.07
2018-05-13T10:40:32.378Z,32.24
2018-05-13T10:43:00.843Z,31.53
2018-05-13T10:45:29.179Z,29.95
2018-05-13T10:47:57.466Z,29.77
2018-05-13T10:50:25.771Z,30.61
2018-05-13T10:52:54.225Z,29.95
2018-05-13T10:55:22.542Z,30.42
2018-05-13T10:57:51.724Z,27.33
2018-05-13T11:00:19.959Z,27.77
2018-05-13T11:02:48.666Z,25.61
2018-05-13T11:05:16.995Z,28.17
2018-05-13T11:07:45.679Z,26.92
2018-05-13T11:10:14.001Z,25.76
2018-05-13T11:12:42.515Z,28.84
2018-05-13T11:15:10.798Z,26.92
2018-05-13T11:17:39.444Z,25.74
2018-05-13T11:20:07.770Z,25.84
2018-05-13T11:22:36.444Z,25.44
2018-05-13T11:25:04.923Z,24.27
2018-05-13T11:27:33.204Z,24.75
2018-05-13T11:30:04.683Z,23.17
2018-05-13T11:32:32.982Z,23.62
2018-05-13T11:35:01.229Z,24.82
2018-05-13T11:37:30.752Z,22.26
2018-05-13T11:40:01.456Z,21.29
2018-05-13T11:42:30.658Z,22.19
2018-05-13T11:44:59.205Z,21.37
2018-05-13T11:47:30.207Z,21.36
2018-05-13T11:49:58.495Z,20.65
2018-05-13T11:52:26.831Z,20.06
2018-05-13T11:54:55.970Z,19.66
2018-05-13T11:57:24.283Z,21.44
2018-05-13T11:59:52.640Z,19.45
2018-05-13T12:02:20.973Z,21.39
2018-05-13T12:04:51.254Z,19.51
2018-05-13T12:07:20.689Z,18.64
2018-05-13T12:09:48.985Z,19.08
2018-05-13T12:12:17.289Z,19.19
2018-05-13T12:14:45.998Z,19.04
2018-05-13T12:17:14.318Z,21.33
2018-05-13T12:19:42.574Z,19.03
2018-05-13T12:22:10.886Z,20.44
2018-05-13T12:24:40.555Z,19.94
2018-05-13T12:27:09.034Z,20.46
2018-05-13T12:29:40.282Z,20.20
2018-05-13T12:32:08.622Z,18.26
2018-05-13T12:34:36.970Z,20.22
2018-05-13T12:37:05.495Z,20.62
2018-05-13T12:39:33.742Z,18.86
2018-05-13T12:42:02.071Z,17.82
2018-05-13T12:44:30.492Z,18.67
2018-05-13T12:46:58.817Z,17.04
2018-05-13T12:49:27.261Z,18.15
2018-05-13T12:51:55.599Z,18.62
2018-05-13T12:54:24.171Z,18.04
2018-05-13T12:56:52.874Z,18.01
2018-05-13T12:59:21.649Z,17.59
2018-05-13T13:01:50.903Z,17.11
2018-05-13T13:04:19.354Z,14.89
2018-05-13T13:06:48.015Z,17.13
2018-05-13T13:09:16.534Z,17.56
2018-05-13T13:11:44.963Z,15.98
2018-05-13T13:14:13.250Z,17.35
2018-05-13T13:16:41.575Z,17.46
2018-05-13T13:19:09.853Z,17.23
2018-05-13T13:21:38.240Z,17.62
2018-05-13T13:24:06.555Z,17.02
2018-05-13T13:26:34.912Z,17.84
2018-05-13T13:29:03.622Z,17.89
2018-05-13T13:31:32.015Z,17.67
2018-05-13T13:34:01.285Z,15.64
2018-05-13T13:36:30.485Z,15.84
2018-05-13T13:38:58.771Z,17.75
2018-05-13T13:41:27.076Z,17.80
2018-05-13T13:43:55.354Z,15.45
2018-05-13T13:46:23.675Z,17.17
2018-05-13T13:48:51.971Z,16.70
2018-05-13T13:51:20.484Z,17.31
2018-05-13T13:53:49.426Z,17.16
2018-05-13T13:56:17.719Z,18.84
2018-05-13T13:58:46.047Z,17.47
2018-05-13T14:01:14.564Z,17.70
2018-05-13T14:03:42.922Z,15.69
2018-05-13T14:06:11.227Z,16.76
2018-05-13T14:08:39.675Z,16.80
2018-05-13T14:11:08.041Z,15.69
2018-05-13T14:13:36.552Z,15.65
2018-05-13T14:16:04.883Z,15.96
2018-05-13T14:18:33.243Z,16.10
2018-05-13T14:21:01.874Z,16.17
2018-05-13T14:23:30.134Z,17.10
2018-05-13T14:25:58.623Z,16.28
2018-05-13T14:28:27.000Z,15.15
2018-05-13T14:30:55.350Z,15.59
2018-05-13T14:33:23.665Z,15.91
2018-05-13T14:35:51.978Z,16.31
2018-05-13T14:38:20.254Z,16.64
2018-05-13T14:40:48.561Z,15.73
2018-05-13T14:43:16.850Z,15.82
2018-05-13T14:45:45.219Z,14.25
2018-05-13T14:48:13.553Z,15.39
2018-05-13T14:50:42.042Z,15.89
2018-05-13T14:53:10.308Z,17.03
2018-05-13T14:55:38.603Z,16.39
2018-05-13T14:58:06.953Z,15.83
2018-05-13T15:00:35.207Z,17.83
2018-05-13T15:03:03.487Z,19.81
2018-05-13T15:05:31.806Z,21.06
2018-05-13T15:08:00.112Z,19.32
2018-05-13T15:10:28.423Z,16.17
2018-05-13T15:12:56.738Z,17.47
2018-05-13T15:15:25.028Z,19.75
2018-05-13T15:17:53.327Z,21.00
2018-05-13T15:20:21.643Z,22.29
2018-05-13T15:22:49.929Z,21.07
2018-05-13T15:25:18.318Z,22.27
2018-05-13T15:27:46.769Z,22.90
2018-05-13T15:30:15.073Z,24.05
2018-05-13T15:32:43.542Z,23.62
2018-05-13T15:35:12.055Z,23.28
2018-05-13T15:37:40.383Z,24.05
2018-05-13T15:40:08.782Z,24.55
2018-05-13T15:42:37.388Z,22.77
2018-05-13T15:45:07.986Z,23.89
2018-05-13T15:47:36.825Z,20.20
2018-05-13T15:50:06.167Z,18.15
2018-05-13T15:52:35.871Z,18.43
2018-05-13T15:55:06.023Z,17.48
2018-05-13T15:57:36.987Z,19.10
2018-05-13T16:00:07.801Z,21.24
2018-05-13T16:02:39.698Z,21.70
2018-05-13T16:05:14.019Z,19.72
2018-05-13T16:07:47.123Z,19.04
2018-05-13T16:10:17.000Z,19.41
2018-05-13T16:12:52.876Z,19.54
2018-05-13T16:15:24.071Z,20.97
2018-05-13T16:17:53.372Z,23.02
2018-05-13T16:20:24.302Z,24.15
2018-05-13T16:22:53.825Z,22.91
2018-05-13T16:25:24.584Z,24.67
2018-05-13T16:27:57.880Z,23.72
2018-05-13T16:30:28.706Z,26.00
2018-05-13T16:32:58.848Z,26.26
2018-05-13T16:35:28.312Z,27.72
2018-05-13T16:38:00.449Z,27.25
2018-05-13T16:40:30.025Z,28.01
2018-05-13T16:43:00.352Z,28.12
2018-05-13T16:45:32.973Z,28.23
2018-05-13T16:48:05.025Z,28.28
2018-05-13T16:50:36.404Z,27.74
2018-05-13T16:53:09.182Z,26.74
2018-05-13T16:55:40.118Z,27.80
2018-05-13T16:58:09.554Z,27.48
2018-05-13T17:00:44.126Z,29.17
2018-05-13T17:03:15.610Z,29.13
2018-05-13T17:05:46.675Z,27.97
2018-05-13T17:08:17.469Z,28.42
2018-05-13T17:10:51.919Z,31.11
2018-05-13T17:13:21.598Z,30.06
2018-05-13T17:15:52.480Z,29.90
2018-05-13T17:18:26.907Z,29.93
2018-05-13T17:20:56.569Z,31.08
2018-05-13T17:23:27.593Z,29.99
2018-05-13T17:25:56.353Z,30.64
2018-05-13T17:28:26.192Z,31.08
2018-05-13T17:30:55.989Z,30.66
2018-05-13T17:33:26.839Z,31.00
2018-05-13T17:35:58.847Z,30.82
2018-05-13T17:38:28.987Z,30.71
2018-05-13T17:41:00.844Z,30.61
2018-05-13T17:43:32.941Z,31.35
2018-05-13T17:46:03.829Z,31.59
2018-05-13T17:48:33.769Z,30.76
2018-05-13T17:51:04.421Z,31.71
2018-05-13T17:53:36.748Z,32.04
2018-05-13T17:56:05.727Z,31.58
2018-05-13T17:58:38.181Z,32.92
2018-05-13T18:01:08.051Z,32.38
2018-05-13T18:03:38.936Z,32.36
2018-05-13T18:06:11.213Z,32.22
2018-05-13T18:08:44.599Z,32.68
2018-05-13T18:11:14.791Z,32.35
2018-05-13T18:13:46.633Z,32.20
2018-05-13T18:16:21.848Z,33.53
2018-05-13T18:18:52.983Z,33.04
2018-05-13T18:21:29.421Z,33.20
2018-05-13T18:23:58.296Z,33.46
2018-05-13T18:26:28.514Z,35.17
2018-05-13T18:28:59.445Z,33.38
2018-05-13T18:31:28.624Z,34.92
2018-05-13T18:33:59.820Z,34.56
2018-05-13T18:36:36.141Z,35.31
2018-05-13T18:39:08.180Z,35.07
2018-05-13T18:41:40.903Z,37.39
2018-05-13T18:51:04.866Z,35.00
2018-05-13T18:53:36.183Z,35.39
2018-05-13T18:56:07.171Z,35.34
2018-05-13T18:58:42.501Z,35.95
2018-05-13T19:01:14.008Z,36.77
2018-05-13T19:03:48.739Z,36.63
2018-05-13T19:06:21.536Z,38.52
2018-05-13T19:08:55.818Z,36.53
2018-05-13T19:11:28.070Z,36.50
2018-05-13T19:15:00.878Z,38.46
2018-05-13T19:17:31.384Z,38.42
2018-05-13T19:20:04.111Z,38.27
2018-05-13T19:22:35.559Z,38.22
2018-05-13T19:25:05.426Z,38.87
2018-05-13T19:27:39.714Z,38.65
2018-05-13T19:30:12.838Z,38.74
2018-05-13T19:32:42.831Z,39.93
2018-05-13T19:35:15.746Z,40.29
2018-05-13T19:37:50.355Z,41.33
2018-05-13T19:40:20.721Z,39.25
2018-05-13T19:42:51.696Z,41.58
2018-05-13T19:45:29.687Z,40.67
2018-05-13T19:48:02.745Z,41.27
2018-05-13T19:50:34.355Z,40.09
2018-05-13T19:53:06.265Z,40.15
2018-05-13T19:55:37.410Z,40.75
2018-05-13T19:58:09.421Z,40.76
2018-05-13T20:00:43.395Z,40.69
2018-05-13T20:03:17.334Z,40.61
2018-05-13T20:05:46.890Z,40.71
2018-05-13T20:08:17.229Z,41.29
2018-05-13T20:10:47.794Z,41.94
2018-05-13T20:13:22.169Z,41.70
2018-05-13T20:15:55.593Z,41.26
2018-05-13T20:18:24.996Z,42.42
2018-05-13T20:20:57.556Z,43.27
2018-05-13T20:23:28.504Z,42.70
2018-05-13T20:26:01.438Z,42.42
2018-05-13T20:28:35.045Z,43.29
2018-05-13T20:31:07.784Z,43.55
2018-05-13T20:33:38.803Z,43.63
2018-05-13T20:36:10.785Z,43.40
2018-05-13T20:38:44.924Z,43.94
2018-05-13T20:41:17.767Z,44.19
2018-05-13T20:43:51.436Z,45.89
2018-05-13T20:46:21.681Z,44.40
2018-05-13T20:48:54.042Z,44.40
2018-05-13T20:51:23.838Z,46.63
2018-05-13T20:53:56.284Z,45.69
2018-05-13T20:56:29.331Z,45.61
2018-05-13T20:59:04.103Z,45.61
2018-05-13T21:01:35.673Z,45.64
2018-05-13T21:04:07.861Z,46.29
2018-05-13T21:06:38.396Z,46.18
2018-05-13T21:09:08.247Z,47.74
2018-05-13T21:11:39.265Z,46.93
2018-05-13T21:14:09.035Z,46.82
2018-05-13T21:16:37.609Z,46.60
2018-05-13T21:19:06.959Z,46.68
2018-05-13T21:21:37.822Z,46.84
2018-05-13T21:24:08.261Z,47.59
2018-05-13T21:26:37.512Z,47.38
2018-05-13T21:29:06.634Z,47.09
2018-05-13T21:31:37.001Z,47.31
2018-05-13T21:34:05.559Z,47.73
2018-05-13T21:36:34.628Z,47.77
2018-05-13T21:39:04.653Z,48.06
2018-05-13T21:41:34.472Z,48.07
2018-05-13T21:44:03.585Z,48.97
2018-05-13T21:46:35.193Z,48.36
2018-05-13T21:49:04.721Z,48.81
2018-05-13T21:51:33.680Z,49.79
2018-05-13T21:54:03.767Z,48.50
2018-05-13T21:56:33.808Z,48.28
2018-05-13T21:59:03.613Z,48.96
2018-05-13T22:01:34.340Z,48.50
2018-05-13T22:04:03.726Z,48.96
2018-05-13T22:06:32.712Z,48.61
2018-05-13T22:09:02.681Z,49.36
2018-05-13T22:11:32.985Z,48.57
2018-05-13T22:14:02.094Z,49.19
2018-05-13T22:16:30.717Z,49.79
2018-05-13T22:19:00.112Z,50.62
2018-05-13T22:21:31.588Z,49.39
2018-05-13T22:24:00.184Z,49.38
2018-05-13T22:26:28.976Z,49.57
2018-05-13T22:28:57.516Z,49.61
2018-05-13T22:31:26.106Z,49.92
2018-05-13T22:33:55.858Z,50.47
2018-05-13T22:36:25.493Z,51.77
2018-05-13T22:38:54.053Z,51.40
2018-05-13T22:41:23.385Z,50.59
2018-05-13T22:43:51.942Z,51.49
2018-05-13T22:46:20.625Z,50.63
2018-05-13T22:48:50.077Z,51.20
2018-05-13T22:51:19.831Z,51.26
2018-05-13T22:53:49.757Z,50.82
2018-05-13T22:56:20.251Z,51.38
2018-05-13T22:58:52.944Z,52.27
2018-05-13T23:01:21.855Z,52.85
2018-05-13T23:03:51.315Z,51.73
2018-05-13T23:06:20.256Z,51.44
2018-05-13T23:08:49.150Z,51.66
2018-05-13T23:11:18.766Z,51.11
2018-05-13T23:13:47.686Z,52.22
2018-05-13T23:16:16.120Z,52.36
2018-05-13T23:18:44.860Z,52.79
2018-05-13T23:21:14.511Z,52.03
2018-05-13T23:23:44.820Z,52.53
2018-05-13T23:26:15.099Z,53.20
2018-05-13T23:28:43.945Z,53.95
2018-05-13T23:31:13.756Z,53.34
2018-05-13T23:33:42.266Z,54.17
2018-05-13T23:36:10.994Z,54.72
2018-05-13T23:38:39.654Z,54.65
2018-05-13T23:41:09.043Z,53.70
2018-05-13T23:43:37.402Z,54.00
2018-05-13T23:46:08.180Z,56.26
2018-05-13T23:48:36.845Z,56.48
2018-05-13T23:51:05.357Z,54.80
2018-05-13T23:53:34.036Z,55.60
2018-05-13T23:56:03.227Z,55.29
2018-05-13T23:58:32.166Z,54.52
